Time;durP1;ratioP1;P1;durP2;ratioP2;P2;SDS_P1;SDS_P2;PMS_P1;PMS_P2;Temp;Humidity;BMP_temperature;BMP_pressure;BME280_temperature;BME280_humidity;BME280_pressure;Samples;Min_cycle;Max_cycle;Signal;HPM_P1;HPM_P2
2022/01/04 00:00:40;;;;;;;6.27;3.03;;;;;;;6.35;100.00;95435.97;5081158;28;20428;-77
2022/01/04 00:03:07;;;;;;;5.23;1.80;;;;;;;6.29;100.00;95430.16;5080128;28;20435;-77
2022/01/04 00:05:34;;;;;;;3.43;1.90;;;;;;;6.32;100.00;95431.38;5095355;28;20992;-80
2022/01/04 00:08:01;;;;;;;3.73;2.27;;;;;;;6.44;100.00;95447.19;5094504;28;20471;-77
2022/01/04 00:10:29;;;;;;;2.27;1.87;;;;;;;6.23;100.00;95407.81;5076994;28;20500;-76
2022/01/04 00:15:43;;;;;;;3.67;2.00;;;;;;;6.21;100.00;95423.13;5077792;28;20431;-76
2022/01/04 00:18:10;;;;;;;3.40;2.20;;;;;;;6.21;100.00;95410.75;5060994;28;20479;-76
2022/01/04 00:20:37;;;;;;;3.20;2.17;;;;;;;6.36;100.00;95401.53;5078211;28;20996;-76
2022/01/04 00:23:04;;;;;;;2.97;2.40;;;;;;;6.18;100.00;95394.91;5077586;28;20432;-76
2022/01/04 00:25:31;;;;;;;6.57;2.60;;;;;;;6.14;100.00;95371.16;5077830;28;20439;-75
2022/01/04 00:27:58;;;;;;;6.70;1.60;;;;;;;6.01;100.00;95371.38;5095182;28;20467;-77
2022/01/04 00:30:28;;;;;;;6.70;2.37;;;;;;;6.07;100.00;95370.13;5065025;28;20432;-77
2022/01/04 00:32:58;;;;;;;4.17;2.33;;;;;;;6.05;100.00;95357.31;5083823;28;20443;-77
2022/01/04 00:35:25;;;;;;;2.83;2.63;;;;;;;6.22;100.00;95383.41;5081477;28;20427;-77
2022/01/04 00:37:51;;;;;;;3.37;2.23;;;;;;;6.11;100.00;95350.78;5078300;28;20456;-77
2022/01/04 00:40:18;;;;;;;6.13;3.67;;;;;;;6.30;100.00;95370.56;5077922;28;20423;-77
2022/01/04 00:42:45;;;;;;;5.47;2.73;;;;;;;6.15;100.00;95366.66;5077284;28;20442;-77
2022/01/04 00:45:11;;;;;;;4.23;2.30;;;;;;;5.95;100.00;95322.84;5061053;28;20431;-77
2022/01/04 00:47:45;;;;;;;2.70;1.90;;;;;;;6.15;100.00;95345.69;5096633;28;20479;-77
2022/01/04 00:50:13;;;;;;;4.27;2.20;;;;;;;6.32;100.00;95355.25;5095831;28;20431;-77
2022/01/04 00:52:39;;;;;;;3.47;2.30;;;;;;;6.19;100.00;95333.44;5096030;28;20500;-77
2022/01/04 00:55:07;;;;;;;2.50;2.00;;;;;;;6.15;100.00;95335.19;5079346;28;20443;-77
2022/01/04 00:57:33;;;;;;;3.83;2.00;;;;;;;6.28;100.00;95342.03;5095980;28;20427;-77
2022/01/04 01:00:00;;;;;;;7.97;2.43;;;;;;;6.17;100.00;95333.78;5096589;28;20435;-77
2022/01/04 01:02:27;;;;;;;2.60;1.93;;;;;;;6.17;100.00;95325.91;5077847;28;20439;-77
2022/01/04 01:04:54;;;;;;;2.93;2.57;;;;;;;6.10;100.00;95311.75;5094552;28;20435;-77
2022/01/04 01:07:21;;;;;;;5.27;2.60;;;;;;;6.16;100.00;95308.63;5061485;28;20462;-77
2022/01/04 01:10:28;;;;;;;3.10;2.13;;;;;;;6.31;100.00;95319.59;5079371;28;20526;-78
2022/01/04 01:12:40;;;;;;;1.70;1.57;;;;;;;6.16;100.00;95303.38;5096414;28;20488;-77
2022/01/04 01:15:07;;;;;;;3.13;1.70;;;;;;;6.13;100.00;95274.38;5079370;28;20498;-77
2022/01/04 01:17:34;;;;;;;6.40;2.17;;;;;;;6.16;100.00;95289.47;5096740;28;20428;-77
2022/01/04 01:20:02;;;;;;;2.30;2.10;;;;;;;6.05;100.00;95285.72;5079237;28;20423;-77
2022/01/04 01:22:29;;;;;;;5.97;2.33;;;;;;;6.20;100.00;95293.75;5060875;28;20447;-77
2022/01/04 01:24:55;;;;;;;2.03;1.80;;;;;;;6.07;100.00;95278.28;5076769;28;20475;-77
2022/01/04 01:27:22;;;;;;;3.47;2.57;;;;;;;6.11;100.00;95273.94;5077368;28;20463;-77
2022/01/04 01:29:49;;;;;;;3.13;2.63;;;;;;;6.15;100.00;95272.22;5077745;28;20427;-77
2022/01/04 01:32:15;;;;;;;2.40;1.77;;;;;;;6.14;100.00;95274.06;5076935;28;20508;-77
2022/01/04 01:34:42;;;;;;;3.90;1.87;;;;;;;6.09;100.00;95269.00;5078935;28;20436;-77
2022/01/04 01:37:09;;;;;;;3.87;1.60;;;;;;;5.98;100.00;95254.75;5078849;28;20488;-77
2022/01/04 01:39:36;;;;;;;6.87;1.80;;;;;;;6.07;100.00;95265.16;5078167;28;20463;-77
2022/01/04 01:42:04;;;;;;;2.60;1.30;;;;;;;6.01;100.00;95261.19;5094562;28;20461;-77
2022/01/04 01:44:33;;;;;;;3.03;1.87;;;;;;;6.05;100.00;95255.00;5095857;28;20573;-77
2022/01/04 01:47:00;;;;;;;3.30;1.90;;;;;;;6.12;100.00;95246.59;5096443;28;20459;-77
2022/01/04 01:49:27;;;;;;;3.33;2.30;;;;;;;5.96;100.00;95222.06;5079137;28;20452;-77
2022/01/04 01:51:55;;;;;;;3.67;2.03;;;;;;;6.11;100.00;95239.81;5097388;28;20446;-77
2022/01/04 01:54:22;;;;;;;2.40;1.80;;;;;;;6.13;100.00;95230.53;5077706;28;20439;-79
2022/01/04 01:56:50;;;;;;;5.63;2.43;;;;;;;6.02;100.00;95213.69;5079604;28;20991;-78
2022/01/04 01:59:17;;;;;;;2.97;2.20;;;;;;;5.86;100.00;95184.63;5078153;28;21033;-77
2022/01/04 02:01:44;;;;;;;2.67;1.80;;;;;;;6.16;100.00;95222.03;5078992;28;20439;-77
2022/01/04 02:04:11;;;;;;;5.73;3.17;;;;;;;6.15;100.00;95212.63;5084115;28;20489;-78
2022/01/04 02:06:38;;;;;;;4.87;2.53;;;;;;;6.03;100.00;95207.34;5083025;28;20485;-78
2022/01/04 02:09:05;;;;;;;3.60;2.47;;;;;;;6.05;100.00;95202.53;5099940;28;20449;-77
2022/01/04 02:11:32;;;;;;;3.13;1.90;;;;;;;5.91;100.00;95163.47;5099684;28;21022;-77
2022/01/04 02:14:00;;;;;;;2.27;1.80;;;;;;;5.92;100.00;95183.38;5082169;28;20471;-77
2022/01/04 02:16:28;;;;;;;7.27;2.60;;;;;;;6.08;100.00;95180.13;5082227;28;20432;-78
2022/01/04 02:19:00;;;;;;;4.30;2.50;;;;;;;5.97;100.00;95179.75;5082025;28;20512;-77
2022/01/04 02:21:27;;;;;;;2.03;1.53;;;;;;;6.03;100.00;95159.34;5082933;28;20474;-78
2022/01/04 02:23:53;;;;;;;2.90;2.20;;;;;;;5.84;100.00;95128.34;5084082;28;20443;-78
2022/01/04 02:26:21;;;;;;;3.37;1.90;;;;;;;5.89;100.00;95142.03;5066388;28;20474;-78
2022/01/04 02:28:49;;;;;;;4.43;2.10;;;;;;;5.86;100.00;95134.78;5103734;28;20478;-78
2022/01/04 02:31:16;;;;;;;2.00;1.80;;;;;;;5.97;100.00;95140.41;5084688;28;20550;-77
2022/01/04 02:33:43;;;;;;;2.97;1.97;;;;;;;5.86;100.00;95121.66;5066963;28;20440;-78
2022/01/04 02:36:10;;;;;;;2.30;2.10;;;;;;;5.86;100.00;95105.16;5083099;28;20989;-77
2022/01/04 02:38:37;;;;;;;4.23;2.87;;;;;;;5.96;100.00;95115.28;5083109;28;20447;-78
2022/01/04 02:41:03;;;;;;;2.70;2.23;;;;;;;5.95;100.00;95131.34;5082143;28;20983;-77
2022/01/04 02:43:30;;;;;;;4.30;2.27;;;;;;;5.95;100.00;95123.47;5082610;28;20453;-77
2022/01/04 02:45:57;;;;;;;3.00;2.27;;;;;;;6.01;100.00;95101.97;5100570;28;20435;-78
2022/01/04 02:48:24;;;;;;;2.27;1.60;;;;;;;6.13;100.00;95109.81;5064188;28;20478;-77
2022/01/04 02:50:51;;;;;;;3.23;1.90;;;;;;;5.92;100.00;95070.59;5097716;28;20504;-78
2022/01/04 02:53:18;;;;;;;2.07;1.60;;;;;;;6.06;100.00;95091.25;5097301;28;20471;-77
2022/01/04 02:55:45;;;;;;;3.97;2.00;;;;;;;6.15;100.00;95085.91;5099536;28;20443;-77
2022/01/04 02:58:13;;;;;;;2.50;1.57;;;;;;;6.12;100.00;95079.44;5080895;28;20448;-77
2022/01/04 03:00:40;;;;;;;6.53;2.37;;;;;;;6.15;100.00;95065.69;5063648;28;20482;-77
2022/01/04 03:03:07;;;;;;;2.43;2.00;;;;;;;6.06;100.00;95046.66;5081748;28;20533;-78
2022/01/04 03:05:34;;;;;;;2.97;2.27;;;;;;;6.17;100.00;95053.00;5081171;28;20477;-77
2022/01/04 03:08:01;;;;;;;3.00;2.00;;;;;;;6.29;100.00;95056.72;5097244;28;20467;-77
2022/01/04 03:10:27;;;;;;;1.90;1.80;;;;;;;6.23;100.00;95050.91;5081176;28;20474;-77
2022/01/04 03:12:55;;;;;;;2.83;2.13;;;;;;;6.33;100.00;95066.22;5098772;28;20434;-78
2022/01/04 03:15:22;;;;;;;7.03;2.90;;;;;;;6.08;100.00;95009.59;5062629;28;20447;-77
2022/01/04 03:17:49;;;;;;;2.90;2.10;;;;;;;6.40;100.00;95049.88;5062259;28;20544;-77
2022/01/04 03:20:15;;;;;;;3.93;2.60;;;;;;;6.33;100.00;95041.81;5078877;28;20447;-77
2022/01/04 03:22:42;;;;;;;1.70;1.60;;;;;;;6.40;100.00;95049.88;5079433;28;20431;-77
2022/01/04 03:25:09;;;;;;;6.07;2.50;;;;;;;6.26;100.00;95024.00;5078785;28;21013;-77
2022/01/04 03:27:36;;;;;;;5.47;2.07;;;;;;;6.37;100.00;95019.06;5097178;28;21043;-77
2022/01/04 03:30:04;;;;;;;2.17;1.97;;;;;;;6.39;100.00;95012.38;5079235;28;20443;-78
2022/01/04 03:32:31;;;;;;;15.17;6.23;;;;;;;6.30;100.00;94996.00;5082251;28;20482;-77
2022/01/04 03:35:01;;;;;;;8.43;5.10;;;;;;;6.38;100.00;95004.84;5071902;28;20439;-77
2022/01/04 03:37:27;;;;;;;2.57;1.77;;;;;;;6.52;100.00;95016.50;5106042;28;20427;-77
2022/01/04 03:39:54;;;;;;;2.43;2.20;;;;;;;6.51;100.00;94996.59;5086905;28;20435;-78
2022/01/04 03:42:21;;;;;;;4.00;1.50;;;;;;;6.61;100.00;94979.63;5080343;28;20541;-77
2022/01/04 03:44:47;;;;;;;2.00;1.33;;;;;;;6.78;100.00;94979.34;5080410;28;20493;-78
2022/01/04 03:47:15;;;;;;;3.10;1.40;;;;;;;6.88;100.00;94996.50;5080464;28;20505;-77
2022/01/04 03:49:42;;;;;;;2.50;1.33;;;;;;;6.71;100.00;94955.53;5080479;28;20455;-77
2022/01/04 03:52:08;;;;;;;1.33;1.23;;;;;;;7.04;100.00;94975.50;5098614;28;20492;-77
2022/01/04 03:54:35;;;;;;;1.47;1.10;;;;;;;6.90;100.00;94938.34;5095755;28;20993;-78
2022/01/04 03:57:02;;;;;;;1.63;1.47;;;;;;;7.12;100.00;94948.31;5079512;28;20436;-77
2022/01/04 03:59:28;;;;;;;1.63;1.27;;;;;;;7.18;100.00;94949.56;5079524;28;20489;-78
2022/01/04 04:01:56;;;;;;;1.97;1.53;;;;;;;7.10;100.00;94935.50;5078923;28;20465;-77
2022/01/04 04:04:23;;;;;;;1.30;1.20;;;;;;;7.20;100.00;94938.72;5097309;28;20420;-77
2022/01/04 04:06:49;;;;;;;2.57;1.27;;;;;;;7.32;100.00;94949.94;5078326;28;20467;-77
2022/01/04 04:09:16;;;;;;;1.30;1.20;;;;;;;7.29;100.00;94937.47;5078779;28;20994;-77
2022/01/04 04:11:43;;;;;;;3.97;1.20;;;;;;;7.32;100.00;94939.41;5062223;28;20498;-77
2022/01/04 04:14:09;;;;;;;2.23;1.40;;;;;;;7.09;100.00;94896.44;5078778;28;20481;-77
2022/01/04 04:16:36;;;;;;;1.27;1.00;;;;;;;7.21;100.00;94906.09;5062673;28;20466;-77
2022/01/04 04:19:03;;;;;;;1.50;1.40;;;;;;;7.22;100.00;94912.91;5083397;28;20794;-78
2022/01/04 04:21:30;;;;;;;1.33;1.20;;;;;;;7.18;100.00;94904.91;5082320;28;20477;-78
2022/01/04 04:23:59;;;;;;;4.57;1.37;;;;;;;7.35;100.00;94930.09;5099492;28;20451;-78
2022/01/04 04:26:26;;;;;;;1.50;1.20;;;;;;;7.41;100.00;94923.47;5098218;28;20442;-77
2022/01/04 04:28:53;;;;;;;2.10;1.40;;;;;;;7.34;100.00;94912.78;5098968;28;20510;-77
2022/01/04 04:31:19;;;;;;;2.03;1.20;;;;;;;7.20;100.00;94894.03;5082543;28;20786;-78
2022/01/04 04:33:46;;;;;;;1.37;1.00;;;;;;;7.19;100.00;94889.91;5098901;28;20464;-77
2022/01/04 04:36:13;;;;;;;1.50;1.17;;;;;;;7.18;100.00;94885.75;5099316;28;20460;-77
2022/01/04 04:38:39;;;;;;;2.20;1.37;;;;;;;7.34;100.00;94910.16;5082016;28;20827;-78
2022/01/04 04:41:06;;;;;;;1.77;1.20;;;;;;;7.37;100.00;94909.50;5098353;28;20470;-77
2022/01/04 04:43:36;;;;;;;1.50;1.40;;;;;;;7.45;100.00;94913.03;5082272;28;20481;-78
2022/01/04 04:46:04;;;;;;;1.20;1.10;;;;;;;7.32;100.00;94886.06;5099002;28;20442;-78
2022/01/04 04:48:31;;;;;;;1.60;1.50;;;;;;;7.46;100.00;94904.03;5082389;28;20474;-77
2022/01/04 04:50:58;;;;;;;1.40;1.23;;;;;;;7.42;100.00;94893.44;5117172;28;20442;-78
2022/01/04 04:53:25;;;;;;;1.37;1.17;;;;;;;7.44;100.00;94888.63;5098983;28;20878;-77
2022/01/04 04:55:51;;;;;;;2.03;1.10;;;;;;;7.48;100.00;94891.31;5098437;28;20478;-78
2022/01/04 04:58:18;;;;;;;1.30;1.20;;;;;;;7.35;100.00;94873.03;5097374;28;20482;-78
2022/01/04 05:00:45;;;;;;;1.63;1.53;;;;;;;7.34;100.00;94866.22;5097844;28;20942;-78
2022/01/04 05:03:12;;;;;;;1.00;0.90;;;;;;;7.50;100.00;94879.38;5080549;28;20492;-78
2022/01/04 05:05:38;;;;;;;1.37;1.03;;;;;;;7.48;100.00;94873.69;5097617;28;20471;-78
2022/01/04 05:08:05;;;;;;;1.33;1.23;;;;;;;7.34;100.00;94853.09;5115417;28;20473;-77
2022/01/04 05:10:32;;;;;;;1.27;1.17;;;;;;;7.39;100.00;94852.06;5080896;28;20947;-78
2022/01/04 05:12:58;;;;;;;1.97;1.60;;;;;;;7.41;100.00;94852.50;5080738;28;20469;-78
2022/01/04 05:15:25;;;;;;;1.63;1.53;;;;;;;7.34;100.00;94833.91;5080575;28;20438;-78
2022/01/04 05:17:52;;;;;;;2.43;1.60;;;;;;;7.46;100.00;94859.34;5116238;28;20492;-77
2022/01/04 05:20:19;;;;;;;2.10;1.67;;;;;;;7.47;100.00;94845.84;5098292;28;20816;-78
2022/01/04 05:22:45;;;;;;;2.50;2.03;;;;;;;7.24;100.00;94797.66;5115938;28;20427;-78
2022/01/04 05:25:12;;;;;;;1.40;1.30;;;;;;;7.39;100.00;94836.31;5097207;28;20426;-77
2022/01/04 05:27:38;;;;;;;1.40;1.30;;;;;;;7.50;100.00;94839.16;5097005;28;21020;-78
2022/01/04 05:30:06;;;;;;;1.67;1.57;;;;;;;7.24;100.00;94803.69;5097500;28;20487;-78
2022/01/04 05:32:32;;;;;;;3.43;1.90;;;;;;;7.39;100.00;94828.41;5116173;28;20430;-78
2022/01/04 05:34:59;;;;;;;12.00;9.43;;;;;;;7.16;100.00;94809.88;5097344;28;20443;-78
2022/01/04 05:37:26;;;;;;;7.70;6.67;;;;;;;7.22;100.00;94799.88;5115842;28;20427;-77
2022/01/04 05:39:53;;;;;;;3.00;2.80;;;;;;;7.33;100.00;94817.38;5097384;28;20458;-78
2022/01/04 05:42:19;;;;;;;6.27;5.77;;;;;;;7.16;100.00;94780.22;5080339;28;20475;-78
2022/01/04 05:44:46;;;;;;;10.03;8.63;;;;;;;7.18;100.00;94783.25;5097359;28;20444;-78
2022/01/04 05:47:13;;;;;;;5.27;4.73;;;;;;;7.27;100.00;94804.84;5097678;28;20434;-78
2022/01/04 05:49:40;;;;;;;6.03;4.30;;;;;;;7.28;100.00;94801.13;5081075;28;20549;-78
2022/01/04 05:52:07;;;;;;;4.50;3.83;;;;;;;7.27;100.00;94803.00;5080463;28;20485;-78
2022/01/04 05:54:34;;;;;;;2.80;2.43;;;;;;;7.28;100.00;94798.50;5097591;28;20438;-78
2022/01/04 05:57:00;;;;;;;2.77;2.47;;;;;;;7.32;100.00;94789.56;5097347;28;20467;-77
2022/01/04 05:59:27;;;;;;;4.90;3.67;;;;;;;7.23;100.00;94777.75;5097300;28;20447;-78
2022/01/04 06:01:54;;;;;;;3.20;2.50;;;;;;;7.18;100.00;94770.88;5080755;28;20454;-78
2022/01/04 06:04:21;;;;;;;4.63;3.03;;;;;;;7.25;100.00;94772.91;5116380;28;20468;-78
2022/01/04 06:06:48;;;;;;;2.13;1.93;;;;;;;7.32;100.00;94779.06;5081106;28;20438;-78
2022/01/04 06:09:22;;;;;;;2.13;1.60;;;;;;;7.32;100.00;94771.19;5080978;28;20462;-78
2022/01/04 06:17:02;;;;;;;2.47;2.27;;;;;;;7.28;100.00;94754.56;5097739;28;20438;-78
2022/01/04 06:19:29;;;;;;;7.40;6.40;;;;;;;7.31;100.00;94751.25;5097776;28;20464;-78
2022/01/04 06:21:56;;;;;;;10.30;9.00;;;;;;;7.34;100.00;94757.69;5097749;28;20468;-78
2022/01/04 06:24:23;;;;;;;11.30;10.10;;;;;;;7.17;100.00;94734.41;5097166;28;20436;-78
2022/01/04 06:26:49;;;;;;;4.70;4.27;;;;;;;7.31;100.00;94750.50;5114903;28;20484;-78
2022/01/04 06:29:17;;;;;;;6.43;5.37;;;;;;;7.20;100.00;94734.50;5097138;28;20497;-78
2022/01/04 06:31:44;;;;;;;4.03;3.60;;;;;;;7.30;100.00;94744.47;5096852;28;20971;-78
2022/01/04 06:34:11;;;;;;;3.83;3.43;;;;;;;7.24;100.00;94729.34;5096406;28;20430;-77
2022/01/04 06:36:38;;;;;;;2.47;2.27;;;;;;;7.37;100.00;94747.25;5096735;28;20454;-78
2022/01/04 06:39:06;;;;;;;3.70;3.40;;;;;;;7.40;100.00;94745.81;5096686;28;20457;-78
2022/01/04 06:41:32;;;;;;;3.77;2.90;;;;;;;7.35;100.00;94733.72;5079583;28;20434;-78
2022/01/04 06:43:59;;;;;;;2.43;2.23;;;;;;;7.21;100.00;94719.47;5096496;28;20446;-78
2022/01/04 06:46:26;;;;;;;1.93;1.73;;;;;;;7.07;100.00;94704.19;5114972;28;20454;-78
2022/01/04 06:48:53;;;;;;;5.60;2.37;;;;;;;7.16;100.00;94717.88;5098368;28;20490;-78
2022/01/04 06:51:20;;;;;;;3.83;2.10;;;;;;;7.23;100.00;94731.19;5083616;28;20473;-78
2022/01/04 06:53:46;;;;;;;4.93;4.53;;;;;;;7.17;100.00;94716.03;5100731;28;20470;-78
2022/01/04 06:56:13;;;;;;;2.50;2.30;;;;;;;7.23;100.00;94727.81;5083347;28;20445;-78
2022/01/04 06:58:40;;;;;;;2.73;2.40;;;;;;;7.25;100.00;94720.34;5119255;28;20446;-78
2022/01/04 07:01:06;;;;;;;2.47;2.27;;;;;;;7.20;100.00;94717.97;5105174;28;20426;-78
2022/01/04 07:03:33;;;;;;;1.93;1.83;;;;;;;7.05;100.00;94699.28;5110923;28;20442;-77
2022/01/04 07:06:00;;;;;;;3.40;3.07;;;;;;;7.19;100.00;94714.56;5112062;28;20499;-78
2022/01/04 07:08:30;;;;;;;2.27;2.07;;;;;;;7.08;100.00;94695.22;5093427;28;20457;-78
2022/01/04 07:10:58;;;;;;;2.73;2.50;;;;;;;6.88;100.00;94665.50;5105315;28;20435;-78
2022/01/04 07:13:25;;;;;;;2.20;1.83;;;;;;;6.95;100.00;94673.56;5101354;28;20434;-78
2022/01/04 07:15:51;;;;;;;2.80;2.60;;;;;;;7.07;100.00;94688.41;5101466;28;20477;-78
2022/01/04 07:18:18;;;;;;;4.03;3.63;;;;;;;6.84;100.00;94651.53;5100970;28;20864;-78
2022/01/04 07:20:45;;;;;;;2.37;2.17;;;;;;;6.89;100.00;94669.66;5102359;28;20446;-78
2022/01/04 07:23:11;;;;;;;5.67;3.60;;;;;;;6.96;100.00;94677.69;5100890;28;21019;-78
2022/01/04 07:25:38;;;;;;;4.30;2.70;;;;;;;6.96;100.00;94666.44;5101222;28;20521;-78
2022/01/04 07:28:05;;;;;;;2.67;2.47;;;;;;;6.85;100.00;94650.44;5118336;28;20839;-78
2022/01/04 07:30:32;;;;;;;3.87;3.57;;;;;;;6.83;100.00;94636.88;5099980;28;20515;-78
2022/01/04 07:32:59;;;;;;;19.23;13.47;;;;;;;6.93;100.00;94657.34;5099819;28;20449;-78
2022/01/04 07:35:26;;;;;;;34.00;22.33;;;;;;;7.04;100.00;94684.59;5100047;28;20852;-78
2022/01/04 07:37:52;;;;;;;10.17;5.83;;;;;;;7.05;100.00;94670.38;5099773;28;20454;-78
2022/01/04 07:40:20;;;;;;;2.87;2.67;;;;;;;6.85;100.00;94645.19;5099640;28;20492;-78
2022/01/04 07:42:47;;;;;;;3.77;2.50;;;;;;;7.01;100.00;94668.78;5099638;28;20954;-78
2022/01/04 07:45:18;;;;;;;18.80;14.13;;;;;;;6.95;100.00;94664.91;5099939;28;20430;-78
2022/01/04 07:47:44;;;;;;;5.43;4.30;;;;;;;6.95;100.00;94657.03;5118474;28;20450;-78
2022/01/04 07:50:12;;;;;;;19.67;11.93;;;;;;;6.64;100.00;94616.59;5082885;28;20498;-78
2022/01/04 07:52:39;;;;;;;9.13;5.60;;;;;;;6.86;100.00;94638.81;5099788;28;20473;-78
2022/01/04 07:55:06;;;;;;;8.23;7.47;;;;;;;6.87;100.00;94637.72;5099232;28;20995;-78
2022/01/04 07:57:33;;;;;;;5.00;4.60;;;;;;;7.06;100.00;94656.13;5098561;28;20431;-78
2022/01/04 08:00:00;;;;;;;5.73;3.93;;;;;;;6.86;100.00;94630.19;5116381;28;20856;-78
2022/01/04 08:02:26;;;;;;;3.53;3.23;;;;;;;6.86;100.00;94625.69;5099547;28;20940;-78
2022/01/04 08:04:53;;;;;;;3.37;3.10;;;;;;;6.99;100.00;94644.72;5117132;28;20473;-79
2022/01/04 08:07:20;;;;;;;3.20;2.90;;;;;;;6.82;100.00;94611.72;5082598;28;20949;-78
2022/01/04 08:09:46;;;;;;;2.40;2.10;;;;;;;6.72;100.00;94599.13;5098898;28;20833;-78
2022/01/04 08:12:13;;;;;;;5.93;5.43;;;;;;;6.77;100.00;94614.63;5099200;28;20439;-78
2022/01/04 08:14:40;;;;;;;5.00;4.70;;;;;;;6.93;100.00;94632.94;5100036;28;20435;-78
2022/01/04 08:17:07;;;;;;;3.67;3.10;;;;;;;6.91;100.00;94622.03;5099421;28;20435;-78
2022/01/04 08:19:33;;;;;;;3.00;2.80;;;;;;;6.97;100.00;94629.31;5099345;28;20503;-78
2022/01/04 08:22:01;;;;;;;4.20;3.50;;;;;;;6.99;100.00;94626.34;5078286;28;20474;-77
2022/01/04 08:24:28;;;;;;;3.30;3.00;;;;;;;6.71;100.00;94595.75;5094673;28;20423;-76
2022/01/04 08:26:55;;;;;;;4.40;3.60;;;;;;;6.69;100.00;94584.84;5077595;28;20488;-77
2022/01/04 08:29:24;;;;;;;4.20;3.80;;;;;;;6.87;100.00;94605.44;5094664;28;20473;-77
2022/01/04 08:31:51;;;;;;;4.77;3.40;;;;;;;6.96;100.00;94627.03;5094733;28;20439;-77
2022/01/04 08:34:18;;;;;;;3.70;3.40;;;;;;;6.67;100.00;94594.91;5094479;28;20439;-76
2022/01/04 08:36:44;;;;;;;7.53;2.80;;;;;;;6.81;100.00;94589.19;5094388;28;20439;-76
2022/01/04 08:39:14;;;;;;;5.60;3.50;;;;;;;7.04;100.00;94612.91;5094386;28;20549;-77
2022/01/04 08:41:42;;;;;;;1.90;1.70;;;;;;;7.01;100.00;94609.13;5094608;28;21005;-77
2022/01/04 08:44:09;;;;;;;3.07;2.67;;;;;;;6.97;100.00;94608.28;5094620;28;20820;-76
2022/01/04 08:46:37;;;;;;;3.90;3.20;;;;;;;6.97;100.00;94608.28;5112643;28;20496;-77
2022/01/04 08:49:07;;;;;;;5.00;4.40;;;;;;;7.05;100.00;94606.56;5077889;28;20454;-77
2022/01/04 08:51:37;;;;;;;4.20;3.53;;;;;;;7.00;100.00;94599.72;5096821;28;20874;-77
2022/01/04 08:54:05;;;;;;;5.70;3.20;;;;;;;7.02;100.00;94592.25;5082360;28;20793;-77
2022/01/04 08:56:32;;;;;;;8.77;3.80;;;;;;;7.04;100.00;94599.78;5099039;28;20485;-77
2022/01/04 08:59:05;;;;;;;3.90;3.37;;;;;;;7.05;100.00;94598.66;5098168;28;20492;-77
2022/01/04 09:01:32;;;;;;;3.03;2.83;;;;;;;7.01;100.00;94597.84;5081217;28;20441;-77
2022/01/04 09:03:59;;;;;;;3.37;3.07;;;;;;;6.91;100.00;94596.53;5097267;28;20469;-77
2022/01/04 09:06:27;;;;;;;3.20;2.90;;;;;;;7.09;100.00;94581.13;5079936;28;20439;-77
2022/01/04 09:08:57;;;;;;;3.83;2.20;;;;;;;7.07;100.00;94578.81;5096042;28;20466;-76
2022/01/04 09:11:24;;;;;;;4.37;3.33;;;;;;;7.05;100.00;94570.53;5095941;28;20849;-77
2022/01/04 09:14:00;;;;;;;4.50;3.70;;;;;;;7.00;100.00;94564.81;5112794;28;20434;-77
2022/01/04 09:19:12;;;;;;;4.33;3.33;;;;;;;7.00;100.00;94557.69;5094244;28;20989;-77
2022/01/04 09:21:39;;;;;;;4.00;3.60;;;;;;;6.99;100.00;94540.41;5112659;28;20430;-77
2022/01/04 09:24:05;;;;;;;2.97;2.77;;;;;;;6.95;100.00;94544.84;5077904;28;20469;-77
2022/01/04 09:26:33;;;;;;;3.70;3.40;;;;;;;7.06;100.00;94558.91;5094630;28;20464;-77
2022/01/04 09:28:59;;;;;;;3.43;3.03;;;;;;;6.98;100.00;94544.13;5093564;28;20466;-77
2022/01/04 09:31:28;;;;;;;7.40;2.80;;;;;;;7.25;100.00;94558.16;5077360;28;20442;-77
2022/01/04 09:33:57;;;;;;;2.17;2.07;;;;;;;7.25;100.00;94539.75;5093957;28;20438;-77
2022/01/04 09:36:34;;;;;;;3.20;2.63;;;;;;;7.00;100.00;94507.00;5076885;28;20461;-77
2022/01/04 09:39:02;;;;;;;3.00;2.70;;;;;;;7.07;100.00;94510.50;5093710;28;20442;-77
2022/01/04 09:41:29;;;;;;;4.37;3.40;;;;;;;7.07;100.00;94491.34;5094364;28;20438;-77
2022/01/04 09:43:56;;;;;;;2.73;2.50;;;;;;;7.16;100.00;94512.16;5092982;28;20949;-77
2022/01/04 09:46:23;;;;;;;4.33;2.90;;;;;;;7.06;100.00;94492.47;5111446;28;20465;-77
2022/01/04 09:48:50;;;;;;;1.73;1.50;;;;;;;7.33;100.00;94514.34;5093426;28;20458;-77
2022/01/04 09:51:17;;;;;;;2.13;1.77;;;;;;;7.37;100.00;94515.16;5093072;28;20442;-77
2022/01/04 09:53:44;;;;;;;2.47;2.10;;;;;;;7.31;100.00;94508.66;5076442;28;20466;-77
2022/01/04 09:56:13;;;;;;;3.03;2.30;;;;;;;7.26;100.00;94486.06;5093318;28;21012;-76
2022/01/04 09:58:40;;;;;;;2.93;2.73;;;;;;;7.24;100.00;94477.78;5111594;28;20515;-76
2022/01/04 10:01:21;;;;;;;3.20;1.87;;;;;;;7.28;100.00;94464.69;5076928;28;20456;-76
2022/01/04 10:04:09;;;;;;;2.83;2.50;;;;;;;7.45;100.00;94487.88;5111377;28;20908;-77
2022/01/04 10:06:37;;;;;;;2.03;1.83;;;;;;;7.38;100.00;94458.88;5093173;28;20865;-76
2022/01/04 10:09:08;;;;;;;2.30;2.03;;;;;;;7.53;100.00;94473.00;5093137;28;20489;-76
2022/01/04 10:11:46;;;;;;;2.17;2.07;;;;;;;7.37;100.00;94458.09;5093012;28;20433;-76
2022/01/04 10:14:28;;;;;;;2.80;1.80;;;;;;;7.58;100.00;94456.91;5093022;28;20905;-76
2022/01/04 10:16:59;;;;;;;2.17;1.97;;;;;;;7.53;100.00;94452.72;5093044;28;20544;-76
2022/01/04 10:19:36;;;;;;;1.97;1.70;;;;;;;7.52;100.00;94456.47;5092766;28;20450;-77
2022/01/04 10:22:16;;;;;;;2.70;1.97;;;;;;;7.61;100.00;94437.78;5111150;28;20434;-76
2022/01/04 10:24:46;;;;;;;2.10;1.60;;;;;;;7.52;100.00;94417.00;5096441;28;20422;-76
2022/01/04 10:27:24;;;;;;;2.73;1.93;;;;;;;7.68;100.00;94422.88;5080069;28;20484;-76
2022/01/04 10:30:36;;;;;;;1.53;1.40;;;;;;;7.57;100.00;94406.19;5097171;28;20458;-77
2022/01/04 10:33:09;;;;;;;2.23;2.03;;;;;;;7.61;100.00;94411.50;5051476;28;20491;-76
2022/01/04 10:35:47;;;;;;;1.67;1.50;;;;;;;7.71;100.00;94408.25;5096698;28;20813;-76
2022/01/04 10:38:33;;;;;;;2.23;1.90;;;;;;;7.66;100.00;94408.56;5097140;28;20533;-76
2022/01/04 10:41:04;;;;;;;3.30;3.00;;;;;;;7.70;100.00;94415.41;5096318;28;20430;-76
2022/01/04 10:43:43;;;;;;;3.40;1.60;;;;;;;7.67;100.00;94397.69;5114770;28;20414;-76
2022/01/04 10:46:13;;;;;;;2.63;2.20;;;;;;;7.79;100.00;94399.38;5096790;28;20434;-76
2022/01/04 10:48:49;;;;;;;2.30;1.80;;;;;;;7.75;100.00;94395.19;5080001;28;20450;-76
2022/01/04 10:51:19;;;;;;;2.80;2.60;;;;;;;7.50;100.00;94355.38;5096073;28;20437;-76
2022/01/04 10:53:52;;;;;;;3.30;2.87;;;;;;;7.76;100.00;94396.69;5096181;28;20462;-77
2022/01/04 10:56:37;;;;;;;3.83;2.93;;;;;;;7.78;100.00;94387.31;5095752;28;20462;-77
2022/01/04 10:59:10;;;;;;;4.10;3.70;;;;;;;7.90;100.00;94386.34;5095987;28;20458;-76
2022/01/04 11:01:42;;;;;;;2.70;2.50;;;;;;;7.83;100.00;94376.50;5095568;28;20435;-76
2022/01/04 11:04:16;;;;;;;2.63;1.90;;;;;;;7.92;100.00;94376.22;5095666;28;20912;-76
2022/01/04 11:06:44;;;;;;;3.73;3.37;;;;;;;7.88;100.00;94368.31;5095557;28;20422;-76
2022/01/04 11:09:12;;;;;;;4.37;3.97;;;;;;;8.01;100.00;94366.19;5095570;28;21327;-76
2022/01/04 11:11:40;;;;;;;2.10;2.00;;;;;;;7.89;100.00;94346.13;5083233;28;20491;-78
2022/01/04 11:14:09;;;;;;;6.83;6.23;;;;;;;7.90;100.00;94337.13;5099487;28;20464;-78
2022/01/04 11:16:36;;;;;;;2.57;2.37;;;;;;;8.09;100.00;94362.53;5099535;28;20434;-78
2022/01/04 11:19:03;;;;;;;3.87;2.63;;;;;;;8.08;100.00;94342.59;5082557;28;20458;-78
2022/01/04 11:21:37;;;;;;;11.10;10.00;;;;;;;8.13;100.00;94342.25;5099797;28;20438;-78
2022/01/04 11:24:06;;;;;;;9.60;8.63;;;;;;;8.24;100.00;94352.91;5118128;28;20458;-78
2022/01/04 11:26:33;;;;;;;13.57;12.37;;;;;;;8.11;100.00;94323.44;5100477;28;20456;-78
2022/01/04 11:29:00;;;;;;;15.53;14.13;;;;;;;8.26;100.00;94337.53;5100375;28;20466;-78
2022/01/04 11:32:18;;;;;;;3.03;2.77;;;;;;;8.28;100.00;94341.34;5099952;28;20446;-78
2022/01/04 11:35:07;;;;;;;10.90;9.80;;;;;;;8.27;100.00;94326.63;5084141;28;20454;-78
2022/01/04 11:37:35;;;;;;;15.37;13.63;;;;;;;8.25;100.00;94323.59;5099699;28;20457;-78
2022/01/04 11:40:34;;;;;;;6.30;5.30;;;;;;;8.36;100.00;94304.56;5084047;28;20819;-78
2022/01/04 11:43:04;;;;;;;15.50;10.03;;;;;;;8.28;100.00;94288.69;5093200;28;20439;-78
2022/01/04 11:45:38;;;;;;;101.20;60.23;;;;;;;8.51;100.00;94312.22;5082847;28;20438;-78
2022/01/04 11:48:25;;;;;;;45.73;28.90;;;;;;;8.52;100.00;94302.44;5083294;28;20522;-78